sensor_id;sensor_type;location;lat;lon;timestamp;P1;durP1;ratioP1;P2;durP2;ratioP2
40116;SDS011;25829;50.228;18.936;2022-11-20T00:02:33;126.60;;;61.80;;
40116;SDS011;25829;50.228;18.936;2022-11-20T00:05:36;129.40;;;63.80;;
40116;SDS011;25829;50.228;18.936;2022-11-20T00:08:37;133.40;;;66.67;;
40116;SDS011;25829;50.228;18.936;2022-11-20T00:11:38;143.03;;;69.73;;
40116;SDS011;25829;50.228;18.936;2022-11-20T00:14:38;150.07;;;68.80;;
40116;SDS011;25829;50.228;18.936;2022-11-20T00:17:41;131.13;;;65.17;;
40116;SDS011;25829;50.228;18.936;2022-11-20T00:20:42;147.03;;;67.10;;
40116;SDS011;25829;50.228;18.936;2022-11-20T00:23:45;166.17;;;71.53;;
40116;SDS011;25829;50.228;18.936;2022-11-20T00:26:47;145.77;;;67.60;;
40116;SDS011;25829;50.228;18.936;2022-11-20T00:29:47;129.83;;;62.93;;
40116;SDS011;25829;50.228;18.936;2022-11-20T00:32:48;134.67;;;63.77;;
40116;SDS011;25829;50.228;18.936;2022-11-20T00:35:49;129.37;;;60.37;;
40116;SDS011;25829;50.228;18.936;2022-11-20T00:38:53;131.00;;;62.00;;
40116;SDS011;25829;50.228;18.936;2022-11-20T00:42:02;124.73;;;57.37;;
40116;SDS011;25829;50.228;18.936;2022-11-20T00:45:04;105.13;;;50.50;;
40116;SDS011;25829;50.228;18.936;2022-11-20T00:48:05;112.90;;;53.07;;
40116;SDS011;25829;50.228;18.936;2022-11-20T00:51:06;103.93;;;49.80;;
40116;SDS011;25829;50.228;18.936;2022-11-20T00:54:07;115.67;;;53.43;;
40116;SDS011;25829;50.228;18.936;2022-11-20T00:57:07;103.23;;;51.97;;
40116;SDS011;25829;50.228;18.936;2022-11-20T01:00:08;110.03;;;53.13;;
40116;SDS011;25829;50.228;18.936;2022-11-20T01:03:09;111.53;;;52.63;;
40116;SDS011;25829;50.228;18.936;2022-11-20T01:06:11;132.83;;;60.27;;
40116;SDS011;25829;50.228;18.936;2022-11-20T01:09:23;129.90;;;59.57;;
40116;SDS011;25829;50.228;18.936;2022-11-20T01:12:24;115.60;;;55.83;;
40116;SDS011;25829;50.228;18.936;2022-11-20T01:15:24;108.10;;;51.77;;
40116;SDS011;25829;50.228;18.936;2022-11-20T01:18:25;103.67;;;50.60;;
40116;SDS011;25829;50.228;18.936;2022-11-20T01:21:27;116.23;;;53.23;;
40116;SDS011;25829;50.228;18.936;2022-11-20T01:24:30;114.80;;;53.47;;
40116;SDS011;25829;50.228;18.936;2022-11-20T01:27:30;120.37;;;55.40;;
40116;SDS011;25829;50.228;18.936;2022-11-20T01:30:34;118.20;;;54.93;;
40116;SDS011;25829;50.228;18.936;2022-11-20T01:33:35;123.30;;;56.80;;
40116;SDS011;25829;50.228;18.936;2022-11-20T01:36:36;115.40;;;55.70;;
40116;SDS011;25829;50.228;18.936;2022-11-20T01:39:44;105.53;;;51.67;;
40116;SDS011;25829;50.228;18.936;2022-11-20T01:42:47;104.13;;;51.53;;
40116;SDS011;25829;50.228;18.936;2022-11-20T01:49:24;131.77;;;58.80;;
40116;SDS011;25829;50.228;18.936;2022-11-20T01:52:48;130.53;;;63.33;;
40116;SDS011;25829;50.228;18.936;2022-11-20T01:55:56;135.83;;;61.37;;
40116;SDS011;25829;50.228;18.936;2022-11-20T01:58:59;127.33;;;59.20;;
40116;SDS011;25829;50.228;18.936;2022-11-20T02:02:03;121.67;;;60.20;;
40116;SDS011;25829;50.228;18.936;2022-11-20T02:05:09;144.47;;;66.77;;
40116;SDS011;25829;50.228;18.936;2022-11-20T02:08:17;150.40;;;69.10;;
40116;SDS011;25829;50.228;18.936;2022-11-20T02:11:19;166.93;;;76.87;;
40116;SDS011;25829;50.228;18.936;2022-11-20T02:14:21;182.73;;;80.13;;
40116;SDS011;25829;50.228;18.936;2022-11-20T02:17:23;168.17;;;71.63;;
40116;SDS011;25829;50.228;18.936;2022-11-20T02:20:25;162.23;;;74.53;;
40116;SDS011;25829;50.228;18.936;2022-11-20T02:27:06;184.30;;;83.97;;
40116;SDS011;25829;50.228;18.936;2022-11-20T02:30:15;181.73;;;84.43;;
40116;SDS011;25829;50.228;18.936;2022-11-20T02:33:16;182.00;;;85.00;;
40116;SDS011;25829;50.228;18.936;2022-11-20T02:36:17;175.87;;;82.53;;
40116;SDS011;25829;50.228;18.936;2022-11-20T02:39:17;176.60;;;79.93;;
40116;SDS011;25829;50.228;18.936;2022-11-20T02:42:20;167.13;;;78.83;;
40116;SDS011;25829;50.228;18.936;2022-11-20T02:45:22;164.43;;;79.83;;
40116;SDS011;25829;50.228;18.936;2022-11-20T02:48:26;185.43;;;83.30;;
40116;SDS011;25829;50.228;18.936;2022-11-20T02:51:27;183.47;;;87.90;;
40116;SDS011;25829;50.228;18.936;2022-11-20T02:54:31;179.17;;;84.07;;
40116;SDS011;25829;50.228;18.936;2022-11-20T02:57:31;175.57;;;80.30;;
40116;SDS011;25829;50.228;18.936;2022-11-20T03:00:32;176.90;;;79.53;;
40116;SDS011;25829;50.228;18.936;2022-11-20T03:03:33;184.17;;;82.13;;
40116;SDS011;25829;50.228;18.936;2022-11-20T03:06:34;171.97;;;79.03;;
40116;SDS011;25829;50.228;18.936;2022-11-20T03:09:35;153.37;;;75.03;;
40116;SDS011;25829;50.228;18.936;2022-11-20T03:12:36;157.53;;;70.90;;
40116;SDS011;25829;50.228;18.936;2022-11-20T03:15:37;138.30;;;65.17;;
40116;SDS011;25829;50.228;18.936;2022-11-20T03:18:38;127.13;;;58.60;;
40116;SDS011;25829;50.228;18.936;2022-11-20T03:21:39;117.13;;;55.97;;
40116;SDS011;25829;50.228;18.936;2022-11-20T03:24:40;112.80;;;53.23;;
40116;SDS011;25829;50.228;18.936;2022-11-20T03:27:41;116.80;;;54.20;;
40116;SDS011;25829;50.228;18.936;2022-11-20T03:30:41;110.00;;;54.70;;
40116;SDS011;25829;50.228;18.936;2022-11-20T03:33:42;104.63;;;49.30;;
40116;SDS011;25829;50.228;18.936;2022-11-20T03:36:43;110.87;;;55.17;;
40116;SDS011;25829;50.228;18.936;2022-11-20T03:39:45;103.20;;;52.90;;
40116;SDS011;25829;50.228;18.936;2022-11-20T03:42:45;103.93;;;50.10;;
40116;SDS011;25829;50.228;18.936;2022-11-20T03:45:46;113.73;;;53.43;;
40116;SDS011;25829;50.228;18.936;2022-11-20T03:48:47;116.63;;;56.20;;
40116;SDS011;25829;50.228;18.936;2022-11-20T03:51:48;108.60;;;53.20;;
40116;SDS011;25829;50.228;18.936;2022-11-20T03:54:49;102.30;;;52.00;;
40116;SDS011;25829;50.228;18.936;2022-11-20T03:57:50;107.70;;;51.93;;
40116;SDS011;25829;50.228;18.936;2022-11-20T04:00:50;98.63;;;49.60;;
40116;SDS011;25829;50.228;18.936;2022-11-20T04:03:52;99.73;;;49.70;;
40116;SDS011;25829;50.228;18.936;2022-11-20T04:06:54;98.60;;;48.33;;
40116;SDS011;25829;50.228;18.936;2022-11-20T04:09:54;91.50;;;46.13;;
40116;SDS011;25829;50.228;18.936;2022-11-20T04:12:55;85.53;;;44.90;;
40116;SDS011;25829;50.228;18.936;2022-11-20T04:15:57;99.77;;;49.47;;
40116;SDS011;25829;50.228;18.936;2022-11-20T04:18:59;88.43;;;45.97;;
40116;SDS011;25829;50.228;18.936;2022-11-20T04:22:01;82.83;;;44.00;;
40116;SDS011;25829;50.228;18.936;2022-11-20T04:25:02;86.83;;;47.17;;
40116;SDS011;25829;50.228;18.936;2022-11-20T04:28:09;85.73;;;45.83;;
40116;SDS011;25829;50.228;18.936;2022-11-20T04:31:11;92.83;;;45.33;;
40116;SDS011;25829;50.228;18.936;2022-11-20T04:34:17;78.80;;;41.20;;
40116;SDS011;25829;50.228;18.936;2022-11-20T04:37:18;84.97;;;44.10;;
40116;SDS011;25829;50.228;18.936;2022-11-20T04:40:18;82.70;;;42.43;;
40116;SDS011;25829;50.228;18.936;2022-11-20T04:43:19;83.93;;;44.20;;
40116;SDS011;25829;50.228;18.936;2022-11-20T04:50:16;81.90;;;43.30;;
40116;SDS011;25829;50.228;18.936;2022-11-20T04:53:17;77.07;;;43.30;;
40116;SDS011;25829;50.228;18.936;2022-11-20T04:56:18;81.40;;;43.43;;
40116;SDS011;25829;50.228;18.936;2022-11-20T04:59:19;84.73;;;44.73;;
40116;SDS011;25829;50.228;18.936;2022-11-20T05:02:20;75.10;;;42.97;;
40116;SDS011;25829;50.228;18.936;2022-11-20T05:05:21;82.27;;;42.37;;
40116;SDS011;25829;50.228;18.936;2022-11-20T05:08:21;77.10;;;41.07;;
40116;SDS011;25829;50.228;18.936;2022-11-20T05:11:23;81.70;;;43.77;;
40116;SDS011;25829;50.228;18.936;2022-11-20T05:14:24;77.53;;;42.00;;
40116;SDS011;25829;50.228;18.936;2022-11-20T05:17:25;80.37;;;44.93;;
40116;SDS011;25829;50.228;18.936;2022-11-20T05:20:26;85.83;;;45.30;;
40116;SDS011;25829;50.228;18.936;2022-11-20T05:23:27;83.80;;;45.00;;
40116;SDS011;25829;50.228;18.936;2022-11-20T05:26:29;94.10;;;47.53;;
40116;SDS011;25829;50.228;18.936;2022-11-20T05:29:30;92.47;;;50.83;;
40116;SDS011;25829;50.228;18.936;2022-11-20T05:32:31;99.20;;;48.53;;
40116;SDS011;25829;50.228;18.936;2022-11-20T05:35:31;86.83;;;45.90;;
40116;SDS011;25829;50.228;18.936;2022-11-20T05:38:32;90.10;;;46.07;;
40116;SDS011;25829;50.228;18.936;2022-11-20T05:41:39;80.67;;;41.50;;
40116;SDS011;25829;50.228;18.936;2022-11-20T05:44:40;89.87;;;44.33;;
40116;SDS011;25829;50.228;18.936;2022-11-20T05:47:41;87.13;;;44.53;;
40116;SDS011;25829;50.228;18.936;2022-11-20T05:50:41;84.30;;;45.37;;
40116;SDS011;25829;50.228;18.936;2022-11-20T05:53:42;83.10;;;45.70;;
40116;SDS011;25829;50.228;18.936;2022-11-20T05:56:44;86.87;;;44.87;;
40116;SDS011;25829;50.228;18.936;2022-11-20T05:59:44;79.67;;;41.50;;
40116;SDS011;25829;50.228;18.936;2022-11-20T06:02:45;74.13;;;43.37;;
40116;SDS011;25829;50.228;18.936;2022-11-20T06:05:52;76.43;;;41.57;;
40116;SDS011;25829;50.228;18.936;2022-11-20T06:08:56;75.67;;;41.17;;
40116;SDS011;25829;50.228;18.936;2022-11-20T06:11:59;72.73;;;42.20;;
40116;SDS011;25829;50.228;18.936;2022-11-20T06:15:00;85.97;;;44.00;;
40116;SDS011;25829;50.228;18.936;2022-11-20T06:18:01;81.73;;;46.57;;
40116;SDS011;25829;50.228;18.936;2022-11-20T06:21:05;81.73;;;44.53;;
40116;SDS011;25829;50.228;18.936;2022-11-20T06:24:10;85.77;;;44.80;;
40116;SDS011;25829;50.228;18.936;2022-11-20T06:27:12;80.57;;;45.00;;
40116;SDS011;25829;50.228;18.936;2022-11-20T06:30:12;75.87;;;43.30;;
40116;SDS011;25829;50.228;18.936;2022-11-20T06:33:13;79.77;;;45.40;;
40116;SDS011;25829;50.228;18.936;2022-11-20T06:36:14;84.60;;;44.27;;
40116;SDS011;25829;50.228;18.936;2022-11-20T06:39:17;86.77;;;45.80;;
40116;SDS011;25829;50.228;18.936;2022-11-20T06:42:17;85.90;;;45.70;;
40116;SDS011;25829;50.228;18.936;2022-11-20T06:45:18;83.47;;;44.57;;
40116;SDS011;25829;50.228;18.936;2022-11-20T06:48:19;81.53;;;44.97;;
40116;SDS011;25829;50.228;18.936;2022-11-20T06:51:20;80.80;;;46.03;;
40116;SDS011;25829;50.228;18.936;2022-11-20T06:54:21;81.43;;;43.60;;
40116;SDS011;25829;50.228;18.936;2022-11-20T06:57:22;76.17;;;44.07;;
40116;SDS011;25829;50.228;18.936;2022-11-20T07:00:23;79.97;;;44.67;;
40116;SDS011;25829;50.228;18.936;2022-11-20T07:03:24;81.63;;;44.00;;
40116;SDS011;25829;50.228;18.936;2022-11-20T07:06:25;81.80;;;42.83;;
40116;SDS011;25829;50.228;18.936;2022-11-20T07:09:25;91.30;;;44.90;;
40116;SDS011;25829;50.228;18.936;2022-11-20T07:12:26;75.53;;;43.20;;
40116;SDS011;25829;50.228;18.936;2022-11-20T07:15:34;90.03;;;46.83;;
40116;SDS011;25829;50.228;18.936;2022-11-20T07:18:35;94.07;;;50.83;;
40116;SDS011;25829;50.228;18.936;2022-11-20T07:21:36;102.63;;;50.90;;
40116;SDS011;25829;50.228;18.936;2022-11-20T07:24:43;114.43;;;56.63;;
40116;SDS011;25829;50.228;18.936;2022-11-20T07:27:44;114.80;;;56.53;;
40116;SDS011;25829;50.228;18.936;2022-11-20T07:34:37;106.33;;;57.40;;
40116;SDS011;25829;50.228;18.936;2022-11-20T07:37:41;118.27;;;64.33;;
40116;SDS011;25829;50.228;18.936;2022-11-20T07:40:41;118.87;;;64.27;;
40116;SDS011;25829;50.228;18.936;2022-11-20T07:43:42;125.83;;;71.47;;
40116;SDS011;25829;50.228;18.936;2022-11-20T07:46:43;131.97;;;73.03;;
40116;SDS011;25829;50.228;18.936;2022-11-20T07:49:44;130.37;;;76.03;;
40116;SDS011;25829;50.228;18.936;2022-11-20T07:52:48;130.73;;;67.70;;
40116;SDS011;25829;50.228;18.936;2022-11-20T07:55:55;112.33;;;61.03;;
40116;SDS011;25829;50.228;18.936;2022-11-20T07:59:04;79.60;;;45.00;;
40116;SDS011;25829;50.228;18.936;2022-11-20T08:06:21;80.27;;;43.93;;
40116;SDS011;25829;50.228;18.936;2022-11-20T08:13:01;70.87;;;40.53;;
40116;SDS011;25829;50.228;18.936;2022-11-20T08:16:20;70.20;;;39.17;;
40116;SDS011;25829;50.228;18.936;2022-11-20T08:19:22;64.80;;;38.40;;
40116;SDS011;25829;50.228;18.936;2022-11-20T08:22:22;68.37;;;39.97;;
40116;SDS011;25829;50.228;18.936;2022-11-20T08:25:32;70.40;;;41.47;;
40116;SDS011;25829;50.228;18.936;2022-11-20T08:28:37;69.80;;;38.40;;
40116;SDS011;25829;50.228;18.936;2022-11-20T08:31:44;65.23;;;39.27;;
40116;SDS011;25829;50.228;18.936;2022-11-20T08:34:45;61.83;;;39.97;;
40116;SDS011;25829;50.228;18.936;2022-11-20T08:37:55;66.33;;;41.23;;
40116;SDS011;25829;50.228;18.936;2022-11-20T08:40:56;66.63;;;38.13;;
40116;SDS011;25829;50.228;18.936;2022-11-20T08:44:23;85.57;;;45.90;;
40116;SDS011;25829;50.228;18.936;2022-11-20T08:47:23;70.90;;;40.27;;
40116;SDS011;25829;50.228;18.936;2022-11-20T08:55:10;66.63;;;36.53;;
40116;SDS011;25829;50.228;18.936;2022-11-20T09:11:07;59.87;;;35.50;;
40116;SDS011;25829;50.228;18.936;2022-11-20T09:14:08;67.17;;;38.53;;
40116;SDS011;25829;50.228;18.936;2022-11-20T09:20:50;66.43;;;37.53;;
40116;SDS011;25829;50.228;18.936;2022-11-20T09:23:51;80.87;;;45.73;;
40116;SDS011;25829;50.228;18.936;2022-11-20T09:26:58;74.23;;;43.03;;
40116;SDS011;25829;50.228;18.936;2022-11-20T09:30:06;61.30;;;37.03;;
40116;SDS011;25829;50.228;18.936;2022-11-20T09:33:08;72.73;;;41.23;;
40116;SDS011;25829;50.228;18.936;2022-11-20T09:36:08;66.87;;;37.13;;
40116;SDS011;25829;50.228;18.936;2022-11-20T09:39:09;66.07;;;39.60;;
40116;SDS011;25829;50.228;18.936;2022-11-20T09:52:18;59.60;;;35.50;;
40116;SDS011;25829;50.228;18.936;2022-11-20T09:55:29;56.70;;;33.17;;
40116;SDS011;25829;50.228;18.936;2022-11-20T09:58:33;56.13;;;32.30;;
40116;SDS011;25829;50.228;18.936;2022-11-20T10:01:40;48.37;;;27.00;;
40116;SDS011;25829;50.228;18.936;2022-11-20T10:05:27;57.97;;;34.13;;
40116;SDS011;25829;50.228;18.936;2022-11-20T10:08:24;58.97;;;30.87;;
40116;SDS011;25829;50.228;18.936;2022-11-20T10:15:01;52.47;;;30.67;;
40116;SDS011;25829;50.228;18.936;2022-11-20T10:21:26;68.37;;;35.97;;
40116;SDS011;25829;50.228;18.936;2022-11-20T10:31:35;71.77;;;38.73;;
40116;SDS011;25829;50.228;18.936;2022-11-20T10:34:49;68.87;;;36.80;;
40116;SDS011;25829;50.228;18.936;2022-11-20T10:37:57;58.87;;;35.47;;
40116;SDS011;25829;50.228;18.936;2022-11-20T10:41:01;58.63;;;34.60;;
40116;SDS011;25829;50.228;18.936;2022-11-20T10:44:22;57.37;;;36.17;;
40116;SDS011;25829;50.228;18.936;2022-11-20T10:47:48;65.40;;;38.83;;
40116;SDS011;25829;50.228;18.936;2022-11-20T10:50:55;59.27;;;36.73;;
40116;SDS011;25829;50.228;18.936;2022-11-20T10:58:08;61.60;;;36.87;;
40116;SDS011;25829;50.228;18.936;2022-11-20T11:01:39;52.53;;;34.17;;
40116;SDS011;25829;50.228;18.936;2022-11-20T11:04:46;63.20;;;35.80;;
40116;SDS011;25829;50.228;18.936;2022-11-20T11:07:58;64.07;;;36.77;;
40116;SDS011;25829;50.228;18.936;2022-11-20T11:11:22;63.43;;;37.20;;
40116;SDS011;25829;50.228;18.936;2022-11-20T11:14:40;65.40;;;36.73;;
40116;SDS011;25829;50.228;18.936;2022-11-20T11:17:46;64.13;;;36.47;;
40116;SDS011;25829;50.228;18.936;2022-11-20T11:20:54;64.10;;;37.67;;
40116;SDS011;25829;50.228;18.936;2022-11-20T11:24:00;64.30;;;38.03;;
40116;SDS011;25829;50.228;18.936;2022-11-20T11:27:03;63.67;;;38.03;;
40116;SDS011;25829;50.228;18.936;2022-11-20T11:30:14;62.93;;;37.73;;
40116;SDS011;25829;50.228;18.936;2022-11-20T11:33:22;70.70;;;38.83;;
40116;SDS011;25829;50.228;18.936;2022-11-20T11:36:23;63.77;;;39.23;;
40116;SDS011;25829;50.228;18.936;2022-11-20T11:39:26;68.10;;;39.97;;
40116;SDS011;25829;50.228;18.936;2022-11-20T11:42:28;57.37;;;35.67;;
40116;SDS011;25829;50.228;18.936;2022-11-20T11:45:30;62.53;;;37.70;;
40116;SDS011;25829;50.228;18.936;2022-11-20T11:48:31;61.57;;;39.33;;
40116;SDS011;25829;50.228;18.936;2022-11-20T11:51:34;59.00;;;36.43;;
40116;SDS011;25829;50.228;18.936;2022-11-20T11:54:48;58.33;;;34.63;;
40116;SDS011;25829;50.228;18.936;2022-11-20T12:11:54;65.10;;;37.23;;
40116;SDS011;25829;50.228;18.936;2022-11-20T12:15:03;57.17;;;35.00;;
40116;SDS011;25829;50.228;18.936;2022-11-20T12:18:08;48.87;;;32.57;;
40116;SDS011;25829;50.228;18.936;2022-11-20T12:31:42;56.50;;;33.40;;
40116;SDS011;25829;50.228;18.936;2022-11-20T12:48:56;46.57;;;30.43;;
40116;SDS011;25829;50.228;18.936;2022-11-20T13:07:07;51.53;;;31.27;;
40116;SDS011;25829;50.228;18.936;2022-11-20T13:13:35;56.77;;;31.53;;
40116;SDS011;25829;50.228;18.936;2022-11-20T13:16:54;53.43;;;31.60;;
40116;SDS011;25829;50.228;18.936;2022-11-20T13:20:00;58.07;;;34.60;;
40116;SDS011;25829;50.228;18.936;2022-11-20T13:23:05;51.63;;;33.80;;
40116;SDS011;25829;50.228;18.936;2022-11-20T13:26:14;70.47;;;38.30;;
40116;SDS011;25829;50.228;18.936;2022-11-20T13:29:18;61.83;;;36.47;;
40116;SDS011;25829;50.228;18.936;2022-11-20T13:32:20;58.70;;;33.90;;
40116;SDS011;25829;50.228;18.936;2022-11-20T13:38:25;59.97;;;35.53;;
40116;SDS011;25829;50.228;18.936;2022-11-20T13:44:36;59.73;;;37.57;;
40116;SDS011;25829;50.228;18.936;2022-11-20T13:47:46;56.17;;;32.83;;
40116;SDS011;25829;50.228;18.936;2022-11-20T13:50:57;56.17;;;34.73;;
40116;SDS011;25829;50.228;18.936;2022-11-20T13:54:14;53.60;;;32.73;;
40116;SDS011;25829;50.228;18.936;2022-11-20T14:04:35;56.50;;;32.07;;
40116;SDS011;25829;50.228;18.936;2022-11-20T14:07:42;56.93;;;34.23;;
40116;SDS011;25829;50.228;18.936;2022-11-20T14:10:44;55.80;;;33.03;;
40116;SDS011;25829;50.228;18.936;2022-11-20T14:20:29;64.10;;;36.40;;
40116;SDS011;25829;50.228;18.936;2022-11-20T14:23:31;61.57;;;37.23;;
40116;SDS011;25829;50.228;18.936;2022-11-20T14:26:32;71.07;;;38.30;;
40116;SDS011;25829;50.228;18.936;2022-11-20T14:29:37;86.80;;;47.47;;
40116;SDS011;25829;50.228;18.936;2022-11-20T14:32:38;112.50;;;59.80;;
40116;SDS011;25829;50.228;18.936;2022-11-20T14:35:44;92.13;;;49.03;;
40116;SDS011;25829;50.228;18.936;2022-11-20T14:38:55;86.87;;;47.67;;
40116;SDS011;25829;50.228;18.936;2022-11-20T14:41:56;79.10;;;45.60;;
40116;SDS011;25829;50.228;18.936;2022-11-20T14:44:58;84.03;;;47.37;;
40116;SDS011;25829;50.228;18.936;2022-11-20T14:48:00;74.93;;;41.17;;
40116;SDS011;25829;50.228;18.936;2022-11-20T14:51:09;72.20;;;42.37;;
40116;SDS011;25829;50.228;18.936;2022-11-20T14:54:14;84.10;;;46.40;;
40116;SDS011;25829;50.228;18.936;2022-11-20T14:57:21;100.53;;;54.07;;
40116;SDS011;25829;50.228;18.936;2022-11-20T15:00:35;90.33;;;48.33;;
40116;SDS011;25829;50.228;18.936;2022-11-20T15:03:40;97.57;;;51.60;;
40116;SDS011;25829;50.228;18.936;2022-11-20T15:06:49;107.53;;;55.17;;
40116;SDS011;25829;50.228;18.936;2022-11-20T15:10:05;108.80;;;60.53;;
40116;SDS011;25829;50.228;18.936;2022-11-20T15:13:11;112.93;;;64.03;;
40116;SDS011;25829;50.228;18.936;2022-11-20T15:16:20;149.63;;;80.23;;
40116;SDS011;25829;50.228;18.936;2022-11-20T15:19:24;90.50;;;50.80;;
40116;SDS011;25829;50.228;18.936;2022-11-20T15:22:26;92.17;;;50.33;;
40116;SDS011;25829;50.228;18.936;2022-11-20T15:25:26;88.93;;;49.70;;
40116;SDS011;25829;50.228;18.936;2022-11-20T15:28:32;87.60;;;50.87;;
40116;SDS011;25829;50.228;18.936;2022-11-20T15:31:52;88.27;;;50.40;;
40116;SDS011;25829;50.228;18.936;2022-11-20T15:34:54;89.60;;;51.57;;
40116;SDS011;25829;50.228;18.936;2022-11-20T15:37:55;82.07;;;49.50;;
40116;SDS011;25829;50.228;18.936;2022-11-20T15:40:56;89.67;;;50.93;;
40116;SDS011;25829;50.228;18.936;2022-11-20T15:43:57;92.67;;;48.80;;
40116;SDS011;25829;50.228;18.936;2022-11-20T15:46:58;80.03;;;46.33;;
40116;SDS011;25829;50.228;18.936;2022-11-20T15:49:58;81.63;;;48.33;;
40116;SDS011;25829;50.228;18.936;2022-11-20T15:52:59;82.73;;;46.73;;
40116;SDS011;25829;50.228;18.936;2022-11-20T15:56:00;88.97;;;48.77;;
40116;SDS011;25829;50.228;18.936;2022-11-20T15:59:04;82.50;;;47.43;;
40116;SDS011;25829;50.228;18.936;2022-11-20T16:02:09;87.77;;;50.73;;
40116;SDS011;25829;50.228;18.936;2022-11-20T16:05:14;86.77;;;51.30;;
40116;SDS011;25829;50.228;18.936;2022-11-20T16:08:15;85.90;;;51.70;;
40116;SDS011;25829;50.228;18.936;2022-11-20T16:11:17;90.70;;;53.17;;
40116;SDS011;25829;50.228;18.936;2022-11-20T16:14:18;96.93;;;55.03;;
40116;SDS011;25829;50.228;18.936;2022-11-20T16:17:41;118.07;;;66.33;;
40116;SDS011;25829;50.228;18.936;2022-11-20T16:20:45;126.93;;;68.03;;
40116;SDS011;25829;50.228;18.936;2022-11-20T16:23:47;110.03;;;58.97;;
40116;SDS011;25829;50.228;18.936;2022-11-20T16:26:52;99.27;;;54.87;;
40116;SDS011;25829;50.228;18.936;2022-11-20T16:30:00;91.43;;;53.03;;
40116;SDS011;25829;50.228;18.936;2022-11-20T16:33:18;99.00;;;53.90;;
40116;SDS011;25829;50.228;18.936;2022-11-20T16:36:20;138.30;;;68.77;;
40116;SDS011;25829;50.228;18.936;2022-11-20T16:39:28;146.03;;;74.87;;
40116;SDS011;25829;50.228;18.936;2022-11-20T16:42:37;122.53;;;58.07;;
40116;SDS011;25829;50.228;18.936;2022-11-20T16:45:42;98.60;;;52.13;;
40116;SDS011;25829;50.228;18.936;2022-11-20T16:49:26;100.13;;;48.30;;
40116;SDS011;25829;50.228;18.936;2022-11-20T16:52:27;81.57;;;44.77;;
40116;SDS011;25829;50.228;18.936;2022-11-20T16:55:33;75.40;;;41.43;;
40116;SDS011;25829;50.228;18.936;2022-11-20T17:05:40;57.87;;;32.63;;
40116;SDS011;25829;50.228;18.936;2022-11-20T17:08:50;68.30;;;34.93;;
40116;SDS011;25829;50.228;18.936;2022-11-20T17:19:23;45.90;;;26.97;;
40116;SDS011;25829;50.228;18.936;2022-11-20T17:22:45;54.53;;;31.90;;
40116;SDS011;25829;50.228;18.936;2022-11-20T17:25:45;50.57;;;29.10;;
40116;SDS011;25829;50.228;18.936;2022-11-20T17:28:51;59.53;;;32.07;;
40116;SDS011;25829;50.228;18.936;2022-11-20T17:32:05;47.77;;;27.87;;
40116;SDS011;25829;50.228;18.936;2022-11-20T17:35:05;61.50;;;32.53;;
40116;SDS011;25829;50.228;18.936;2022-11-20T17:38:07;51.40;;;29.00;;
40116;SDS011;25829;50.228;18.936;2022-11-20T17:41:08;59.90;;;31.50;;
40116;SDS011;25829;50.228;18.936;2022-11-20T17:44:10;62.03;;;31.43;;
40116;SDS011;25829;50.228;18.936;2022-11-20T17:47:21;63.73;;;32.77;;
40116;SDS011;25829;50.228;18.936;2022-11-20T17:50:57;45.40;;;25.40;;
40116;SDS011;25829;50.228;18.936;2022-11-20T17:54:40;46.30;;;25.20;;
40116;SDS011;25829;50.228;18.936;2022-11-20T17:57:40;40.57;;;22.57;;
40116;SDS011;25829;50.228;18.936;2022-11-20T18:00:58;36.90;;;22.20;;
40116;SDS011;25829;50.228;18.936;2022-11-20T18:04:04;40.93;;;24.37;;
40116;SDS011;25829;50.228;18.936;2022-11-20T18:07:05;77.20;;;36.70;;
40116;SDS011;25829;50.228;18.936;2022-11-20T18:10:06;57.67;;;31.57;;
40116;SDS011;25829;50.228;18.936;2022-11-20T18:13:08;39.97;;;25.33;;
40116;SDS011;25829;50.228;18.936;2022-11-20T18:16:08;41.17;;;23.33;;
40116;SDS011;25829;50.228;18.936;2022-11-20T18:19:10;43.23;;;23.03;;
40116;SDS011;25829;50.228;18.936;2022-11-20T18:22:12;36.00;;;20.60;;
40116;SDS011;25829;50.228;18.936;2022-11-20T18:25:14;39.57;;;21.10;;
40116;SDS011;25829;50.228;18.936;2022-11-20T18:28:15;35.53;;;20.57;;
40116;SDS011;25829;50.228;18.936;2022-11-20T18:31:19;34.87;;;21.83;;
40116;SDS011;25829;50.228;18.936;2022-11-20T18:34:23;33.17;;;20.60;;
40116;SDS011;25829;50.228;18.936;2022-11-20T18:37:23;35.30;;;21.17;;
40116;SDS011;25829;50.228;18.936;2022-11-20T18:40:24;31.87;;;19.33;;
40116;SDS011;25829;50.228;18.936;2022-11-20T18:43:25;29.57;;;16.67;;
40116;SDS011;25829;50.228;18.936;2022-11-20T18:46:44;30.43;;;16.77;;
40116;SDS011;25829;50.228;18.936;2022-11-20T18:49:50;33.47;;;18.40;;
40116;SDS011;25829;50.228;18.936;2022-11-20T18:52:52;32.77;;;17.90;;
40116;SDS011;25829;50.228;18.936;2022-11-20T18:55:53;29.27;;;17.40;;
40116;SDS011;25829;50.228;18.936;2022-11-20T18:58:54;29.93;;;18.13;;
40116;SDS011;25829;50.228;18.936;2022-11-20T19:01:57;29.07;;;16.97;;
40116;SDS011;25829;50.228;18.936;2022-11-20T19:04:58;31.33;;;17.63;;
40116;SDS011;25829;50.228;18.936;2022-11-20T19:07:59;28.10;;;18.47;;
40116;SDS011;25829;50.228;18.936;2022-11-20T19:11:06;26.27;;;17.47;;
40116;SDS011;25829;50.228;18.936;2022-11-20T19:14:08;30.13;;;17.33;;
40116;SDS011;25829;50.228;18.936;2022-11-20T19:17:09;30.87;;;17.80;;
40116;SDS011;25829;50.228;18.936;2022-11-20T19:20:13;30.13;;;18.47;;
40116;SDS011;25829;50.228;18.936;2022-11-20T19:23:14;28.97;;;16.97;;
40116;SDS011;25829;50.228;18.936;2022-11-20T19:26:17;31.27;;;18.40;;
40116;SDS011;25829;50.228;18.936;2022-11-20T19:29:18;29.40;;;17.60;;
40116;SDS011;25829;50.228;18.936;2022-11-20T19:32:23;32.07;;;19.40;;
40116;SDS011;25829;50.228;18.936;2022-11-20T19:35:24;30.07;;;18.70;;
40116;SDS011;25829;50.228;18.936;2022-11-20T19:38:24;26.73;;;16.90;;
40116;SDS011;25829;50.228;18.936;2022-11-20T19:41:26;30.67;;;17.00;;
40116;SDS011;25829;50.228;18.936;2022-11-20T19:44:31;27.37;;;17.10;;
40116;SDS011;25829;50.228;18.936;2022-11-20T19:47:35;31.03;;;17.47;;
40116;SDS011;25829;50.228;18.936;2022-11-20T19:50:35;36.97;;;20.07;;
40116;SDS011;25829;50.228;18.936;2022-11-20T19:53:39;35.80;;;18.60;;
40116;SDS011;25829;50.228;18.936;2022-11-20T19:56:43;33.63;;;18.17;;
40116;SDS011;25829;50.228;18.936;2022-11-20T19:59:45;30.80;;;17.50;;
40116;SDS011;25829;50.228;18.936;2022-11-20T20:02:49;30.07;;;17.83;;
40116;SDS011;25829;50.228;18.936;2022-11-20T20:05:50;30.83;;;17.80;;
40116;SDS011;25829;50.228;18.936;2022-11-20T20:08:58;40.20;;;21.63;;
40116;SDS011;25829;50.228;18.936;2022-11-20T20:12:09;44.17;;;24.07;;
40116;SDS011;25829;50.228;18.936;2022-11-20T20:15:10;42.13;;;23.00;;
40116;SDS011;25829;50.228;18.936;2022-11-20T20:18:10;52.10;;;25.03;;
40116;SDS011;25829;50.228;18.936;2022-11-20T20:21:12;43.03;;;22.67;;
40116;SDS011;25829;50.228;18.936;2022-11-20T20:24:14;67.87;;;30.90;;